Sbi Macarena — D5LD7 — position and weather

sailwx.info

Track history (hours):
 
Tides and Currents Weather Stations Pressure Air Temp Water Temp Dewpoint Dewpoint Depression Visibility Wind Speed Wind Dir Waves Ship Positions

Sbi Macarena

Last reported at 2018-Feb-14 02:04 UTC. Time now 2018-Feb-17 19:23 UTC.
Position N 35°53' W 023°41'.

Length 229 m; draft 14.5 m.

Type: Cargo ship. MMSI: 636017478.

Date/timePositionNaut miles runAvg speedWind from/ knotsBaromVisibWave heightAir tempDewpointWater temp
2018-Feb-14 02:04N 35°53' W 023°41'211.1
2018-Feb-14 01:55N 35°53' W 023°43'510.9
2018-Feb-14 01:30N 35°53' W 023°49'511.0
2018-Feb-14 01:01N 35°53' W 023°55'611.2
2018-Feb-14 00:30N 35°53' W 024°02'511.1
2018-Feb-14 00:00N 35°53' W 024°09'611.1
2018-Feb-13 23:30N 35°53' W 024°16'611.2
2018-Feb-13 23:00N 35°53' W 024°23'511.0
2018-Feb-13 22:30N 35°53' W 024°30'510.9
2018-Feb-13 22:00N 35°53' W 024°36'510.8
2018-Feb-13 21:30N 35°53' W 024°43'611.2
2018-Feb-13 21:00N 35°53' W 024°50'611.2
2018-Feb-13 20:30N 35°53' W 024°57'611.1
2018-Feb-13 20:00N 35°53' W 025°04'611.1
2018-Feb-13 19:30N 35°53' W 025°11'510.9
2018-Feb-13 19:01N 35°53' W 025°17'510.6
2018-Feb-13 18:30N 35°53' W 025°24'611.1
2018-Feb-13 18:00N 35°53' W 025°31'611.1
2018-Feb-13 17:28N 35°53' W 025°38'511.1
2018-Feb-13 16:59N 35°53' W 025°45'  
Track history (hours):
 
Tides and Currents Weather Stations Pressure Air Temp Water Temp Dewpoint Dewpoint Depression Visibility Wind Speed Wind Dir Waves Ship Positions

Sbi Macarena

Last reported at 2018-Feb-14 02:04 UTC. Time now 2018-Feb-17 19:23 UTC.
Position N 35°53' W 023°41'.

Length 229 m; draft 14.5 m.

Type: Cargo ship. MMSI: 636017478.

Date/timePositionNaut miles runAvg speedWind from/ knotsBaromVisibWave heightAir tempDewpointWater temp
2018-Feb-14 02:04N 35°53' W 023°41'211.1
2018-Feb-14 01:55N 35°53' W 023°43'510.9
2018-Feb-14 01:30N 35°53' W 023°49'511.0
2018-Feb-14 01:01N 35°53' W 023°55'611.2
2018-Feb-14 00:30N 35°53' W 024°02'511.1
2018-Feb-14 00:00N 35°53' W 024°09'611.1
2018-Feb-13 23:30N 35°53' W 024°16'611.2
2018-Feb-13 23:00N 35°53' W 024°23'511.0
2018-Feb-13 22:30N 35°53' W 024°30'510.9
2018-Feb-13 22:00N 35°53' W 024°36'510.8
2018-Feb-13 21:30N 35°53' W 024°43'611.2
2018-Feb-13 21:00N 35°53' W 024°50'611.2
2018-Feb-13 20:30N 35°53' W 024°57'611.1
2018-Feb-13 20:00N 35°53' W 025°04'611.1
2018-Feb-13 19:30N 35°53' W 025°11'510.9
2018-Feb-13 19:01N 35°53' W 025°17'510.6
2018-Feb-13 18:30N 35°53' W 025°24'611.1
2018-Feb-13 18:00N 35°53' W 025°31'611.1
2018-Feb-13 17:28N 35°53' W 025°38'511.1
2018-Feb-13 16:59N 35°53' W 025°45'  

Dump ship's entire track history